createdAt,value
2023-05-22T00:00:21.866Z,0.00
2023-05-22T00:01:21.849Z,0.00
2023-05-22T00:02:22.773Z,0.00
2023-05-22T00:03:21.822Z,0.00
2023-05-22T00:04:21.858Z,0.00
2023-05-22T00:05:21.792Z,0.00
2023-05-22T00:06:21.832Z,0.00
2023-05-22T00:07:21.818Z,0.00
2023-05-22T00:08:22.676Z,0.00
2023-05-22T00:09:21.746Z,0.00
2023-05-22T00:10:21.704Z,0.00
2023-05-22T00:11:21.779Z,0.00
2023-05-22T00:12:21.752Z,0.00
2023-05-22T00:13:21.679Z,0.00
2023-05-22T00:14:22.624Z,0.00
2023-05-22T00:15:21.637Z,0.00
2023-05-22T00:16:22.343Z,0.00
2023-05-22T00:17:21.735Z,0.00
2023-05-22T00:18:21.621Z,0.00
2023-05-22T00:19:22.592Z,0.00
2023-05-22T00:20:21.614Z,0.00
2023-05-22T00:21:21.626Z,0.00
2023-05-22T00:22:21.583Z,0.00
2023-05-22T00:23:21.541Z,0.00
2023-05-22T00:24:21.613Z,0.00
2023-05-22T00:25:22.443Z,0.00
2023-05-22T00:26:21.509Z,0.00
2023-05-22T00:27:21.534Z,0.00
2023-05-22T00:28:21.463Z,0.00
2023-05-22T00:29:25.160Z,0.00
2023-05-22T00:30:22.378Z,0.00
2023-05-22T00:31:21.481Z,0.00
2023-05-22T00:32:21.434Z,0.00
2023-05-22T00:33:21.430Z,0.00
2023-05-22T00:34:21.498Z,0.00
2023-05-22T00:35:21.437Z,0.00
2023-05-22T00:36:22.338Z,0.00
2023-05-22T00:37:21.377Z,0.00
2023-05-22T00:38:21.359Z,0.00
2023-05-22T00:39:21.374Z,0.00
2023-05-22T00:40:21.355Z,0.00
2023-05-22T00:41:21.386Z,0.00
2023-05-22T00:42:22.346Z,0.00
2023-05-22T00:43:21.362Z,0.00
2023-05-22T00:44:21.302Z,0.00
2023-05-22T00:45:21.313Z,0.00
2023-05-22T00:46:21.567Z,0.00
2023-05-22T00:47:21.293Z,0.00
2023-05-22T00:48:22.190Z,0.00
2023-05-22T00:49:21.309Z,0.00
2023-05-22T00:50:21.323Z,0.00
2023-05-22T00:51:21.246Z,0.00
2023-05-22T00:52:21.217Z,0.00
2023-05-22T00:53:21.168Z,0.00
2023-05-22T00:54:22.086Z,0.00
2023-05-22T00:55:21.176Z,0.00
2023-05-22T00:56:21.136Z,0.00
2023-05-22T00:57:21.124Z,0.00
2023-05-22T00:58:21.145Z,0.00
2023-05-22T00:59:22.029Z,0.00
2023-05-22T01:00:21.309Z,0.00
2023-05-22T01:01:21.174Z,0.00
2023-05-22T01:02:21.077Z,0.00
2023-05-22T01:03:21.104Z,0.00
2023-05-22T01:04:21.958Z,0.00
2023-05-22T01:05:21.019Z,0.00
2023-05-22T01:06:21.040Z,0.00
2023-05-22T01:07:21.001Z,0.00
2023-05-22T01:08:20.958Z,0.00
2023-05-22T01:09:21.910Z,0.00
2023-05-22T01:10:20.954Z,0.00
2023-05-22T01:11:20.992Z,0.00
2023-05-22T01:12:20.914Z,0.00
2023-05-22T01:13:20.919Z,0.00
2023-05-22T01:14:21.926Z,0.00
2023-05-22T01:15:20.914Z,0.00
2023-05-22T01:16:20.972Z,0.00
2023-05-22T01:17:20.859Z,0.00
2023-05-22T01:18:20.847Z,0.00
2023-05-22T01:19:20.920Z,0.00
2023-05-22T01:20:21.846Z,0.00
2023-05-22T01:21:20.865Z,0.00
2023-05-22T01:22:20.796Z,0.00
2023-05-22T01:23:20.829Z,0.00
2023-05-22T01:24:20.814Z,0.00
2023-05-22T01:25:20.767Z,0.00
2023-05-22T01:26:21.695Z,0.00
2023-05-22T01:27:20.800Z,0.00
2023-05-22T01:28:20.721Z,0.00
2023-05-22T01:29:20.723Z,0.00
2023-05-22T01:30:20.705Z,0.00
2023-05-22T01:31:21.735Z,0.00
2023-05-22T01:32:20.697Z,0.00
2023-05-22T01:33:20.869Z,0.00
2023-05-22T01:34:20.730Z,0.00
2023-05-22T01:35:20.658Z,0.00
2023-05-22T01:36:20.669Z,0.00
2023-05-22T01:37:21.560Z,0.00
2023-05-22T01:38:20.569Z,0.00
2023-05-22T01:39:20.593Z,0.00
2023-05-22T01:40:20.634Z,0.00
2023-05-22T01:41:20.563Z,0.00
2023-05-22T01:42:20.588Z,0.00
2023-05-22T01:43:21.490Z,0.00
2023-05-22T01:44:20.529Z,0.00
2023-05-22T01:45:20.506Z,0.00
2023-05-22T01:46:20.535Z,0.00
2023-05-22T01:47:20.518Z,0.00
2023-05-22T01:48:21.407Z,0.00
2023-05-22T01:49:20.448Z,0.00
2023-05-22T01:50:20.540Z,0.00
2023-05-22T01:51:20.436Z,0.00
2023-05-22T01:52:20.472Z,0.00
2023-05-22T01:53:20.429Z,0.00
2023-05-22T01:54:21.350Z,0.00
2023-05-22T01:55:20.385Z,0.00
2023-05-22T01:56:20.395Z,0.00
2023-05-22T01:57:20.394Z,0.00
2023-05-22T01:58:20.344Z,0.00
2023-05-22T01:59:20.390Z,0.00
2023-05-22T02:00:21.290Z,0.00
2023-05-22T02:01:20.351Z,0.00
2023-05-22T02:02:20.337Z,0.00
2023-05-22T02:03:20.404Z,0.00
2023-05-22T02:04:20.282Z,0.00
2023-05-22T02:05:20.277Z,0.00
2023-05-22T02:06:21.171Z,0.00
2023-05-22T02:07:20.315Z,0.00
2023-05-22T02:08:20.232Z,0.00
2023-05-22T02:09:20.197Z,0.00
2023-05-22T02:10:20.227Z,0.00
2023-05-22T02:11:20.185Z,0.00
2023-05-22T02:12:21.133Z,0.00
2023-05-22T02:13:20.150Z,0.00
2023-05-22T02:14:20.156Z,0.00
2023-05-22T02:15:20.144Z,0.00
2023-05-22T02:16:20.173Z,0.00
2023-05-22T02:17:20.112Z,0.00
2023-05-22T02:18:21.037Z,0.00
2023-05-22T02:19:20.183Z,0.00
2023-05-22T02:20:20.072Z,0.00
2023-05-22T02:21:20.100Z,0.00
2023-05-22T02:22:20.085Z,0.00
2023-05-22T02:23:20.084Z,0.00
2023-05-22T02:24:20.986Z,0.00
2023-05-22T02:25:19.996Z,0.00
2023-05-22T02:26:20.009Z,0.00
2023-05-22T02:27:19.982Z,0.00
2023-05-22T02:28:19.985Z,0.00
2023-05-22T02:29:20.903Z,0.00
2023-05-22T02:30:19.957Z,0.00
2023-05-22T02:31:20.014Z,4.00
2023-05-22T02:32:19.913Z,4.00
2023-05-22T02:33:19.922Z,4.00
2023-05-22T02:34:19.898Z,0.00
2023-05-22T02:35:20.857Z,4.00
2023-05-22T02:36:19.869Z,4.00
2023-05-22T02:37:19.882Z,4.00
2023-05-22T02:38:19.861Z,4.00
2023-05-22T02:39:19.859Z,4.00
2023-05-22T02:40:19.822Z,4.00
2023-05-22T02:41:20.769Z,8.00
2023-05-22T02:42:19.821Z,4.00
2023-05-22T02:43:19.845Z,8.00
2023-05-22T02:44:19.816Z,8.00
2023-05-22T02:45:19.778Z,12.00
2023-05-22T02:46:20.780Z,8.00
2023-05-22T02:47:19.722Z,12.00
2023-05-22T02:49:17.235Z,16.00
2023-05-22T02:50:17.250Z,16.00
2023-05-22T02:51:17.240Z,16.00
2023-05-22T02:52:18.269Z,20.00
2023-05-22T02:53:17.230Z,20.00
2023-05-22T02:54:17.164Z,24.00
2023-05-22T02:55:17.166Z,28.00
2023-05-22T02:56:17.172Z,28.00
2023-05-22T02:57:17.131Z,32.00
2023-05-22T02:58:18.105Z,36.00
2023-05-22T02:59:17.161Z,36.00
2023-05-22T03:00:17.092Z,40.00
2023-05-22T03:01:17.133Z,44.00
2023-05-22T03:02:17.113Z,48.00
2023-05-22T03:03:17.194Z,52.00
2023-05-22T03:04:18.026Z,60.00
2023-05-22T03:05:17.034Z,60.00
2023-05-22T03:06:17.048Z,64.00
2023-05-22T03:07:17.082Z,72.00
2023-05-22T03:08:17.353Z,76.00
2023-05-22T03:09:23.265Z,84.00
2023-05-22T03:10:16.968Z,88.00
2023-05-22T03:11:17.003Z,96.00
2023-05-22T03:12:16.944Z,104.00
2023-05-22T03:13:16.920Z,112.00
2023-05-22T03:14:16.944Z,124.00
2023-05-22T03:15:17.853Z,132.00
2023-05-22T03:16:17.097Z,140.00
2023-05-22T03:17:16.908Z,152.00
2023-05-22T03:18:16.861Z,164.00
2023-05-22T03:19:16.978Z,172.00
2023-05-22T03:20:17.781Z,184.00
2023-05-22T03:21:16.827Z,192.00
2023-05-22T03:22:16.847Z,204.00
2023-05-22T03:23:16.798Z,216.00
2023-05-22T03:24:16.842Z,224.00
2023-05-22T03:25:17.702Z,236.00
2023-05-22T03:26:16.798Z,248.00
2023-05-22T03:27:16.832Z,260.00
2023-05-22T03:28:16.732Z,272.00
2023-05-22T03:29:16.825Z,284.00
2023-05-22T03:30:16.729Z,300.00
2023-05-22T03:31:17.648Z,316.00
2023-05-22T03:32:16.715Z,328.00
2023-05-22T03:33:16.779Z,348.00
2023-05-22T03:34:16.692Z,360.00
2023-05-22T03:35:16.706Z,372.00
2023-05-22T03:36:16.676Z,388.00
2023-05-22T03:37:17.597Z,400.00
2023-05-22T03:38:16.639Z,420.00
2023-05-22T03:39:16.603Z,436.00
2023-05-22T03:40:16.652Z,452.00
2023-05-22T03:41:16.616Z,468.00
2023-05-22T03:42:16.611Z,488.00
2023-05-22T03:43:22.891Z,508.00
2023-05-22T03:44:16.577Z,524.00
2023-05-22T03:45:16.583Z,544.00
2023-05-22T03:46:16.673Z,560.00
2023-05-22T03:47:16.562Z,580.00
2023-05-22T03:48:17.407Z,596.00
2023-05-22T03:49:16.514Z,608.00
2023-05-22T03:50:16.479Z,628.00
2023-05-22T03:51:18.660Z,640.00
2023-05-22T03:52:16.524Z,656.00
2023-05-22T03:53:16.423Z,672.00
2023-05-22T03:54:22.848Z,688.00
2023-05-22T03:55:16.423Z,708.00
2023-05-22T03:56:16.381Z,728.00
2023-05-22T03:57:16.379Z,748.00
2023-05-22T03:58:16.393Z,768.00
2023-05-22T03:59:16.444Z,784.00
2023-05-22T04:00:17.355Z,792.00
2023-05-22T04:01:16.345Z,800.00
2023-05-22T04:02:16.385Z,812.00
2023-05-22T04:03:16.398Z,828.00
2023-05-22T04:04:16.347Z,844.00
2023-05-22T04:05:22.530Z,864.00
2023-05-22T04:06:16.305Z,880.00
2023-05-22T04:07:16.372Z,892.00
2023-05-22T04:08:16.283Z,908.00
2023-05-22T04:09:16.208Z,932.00
2023-05-22T04:10:16.212Z,944.00
2023-05-22T04:11:17.190Z,956.00
2023-05-22T04:12:16.259Z,972.00
2023-05-22T04:13:16.207Z,988.00
2023-05-22T04:14:16.166Z,996.00
2023-05-22T04:15:16.156Z,1012.00
2023-05-22T04:16:17.224Z,1032.00
2023-05-22T04:17:16.146Z,1052.00
2023-05-22T04:18:16.153Z,1072.00
2023-05-22T04:19:16.166Z,1096.00
2023-05-22T04:20:16.154Z,1120.00
2023-05-22T04:21:22.329Z,1140.00
2023-05-22T04:22:16.045Z,1164.00
2023-05-22T04:23:16.071Z,1188.00
2023-05-22T04:24:16.012Z,1212.00
2023-05-22T04:25:16.080Z,1236.00
2023-05-22T04:26:16.965Z,1260.00
2023-05-22T04:27:16.053Z,1280.00
2023-05-22T04:28:15.977Z,1300.00
2023-05-22T04:29:15.950Z,1328.00
2023-05-22T04:30:15.976Z,1360.00
2023-05-22T04:31:17.018Z,1400.00
2023-05-22T04:32:15.981Z,1436.00
2023-05-22T04:33:15.955Z,1472.00
2023-05-22T04:34:15.915Z,1492.00
2023-05-22T04:35:15.957Z,1516.00
2023-05-22T04:36:16.836Z,1536.00
2023-05-22T04:37:15.919Z,1556.00
2023-05-22T04:38:15.888Z,1572.00
2023-05-22T04:39:15.875Z,1580.00
2023-05-22T04:40:15.883Z,1576.00
2023-05-22T04:41:15.846Z,1580.00
2023-05-22T04:42:16.756Z,1604.00
2023-05-22T04:43:15.782Z,1620.00
2023-05-22T04:44:15.762Z,1624.00
2023-05-22T04:45:15.780Z,1632.00
2023-05-22T04:46:15.873Z,1628.00
2023-05-22T04:47:15.747Z,1644.00
2023-05-22T04:48:16.700Z,1656.00
2023-05-22T04:49:15.972Z,1652.00
2023-05-22T04:50:15.765Z,1648.00
2023-05-22T04:51:15.768Z,1636.00
2023-05-22T04:52:15.664Z,1644.00
2023-05-22T04:53:15.661Z,1664.00
2023-05-22T04:54:16.606Z,1696.00
2023-05-22T04:55:15.793Z,1712.00
2023-05-22T04:56:24.312Z,1728.00
2023-05-22T04:57:17.214Z,1724.00
2023-05-22T04:58:15.624Z,1720.00
2023-05-22T04:59:15.634Z,1712.00
2023-05-22T05:00:16.514Z,1700.00
2023-05-22T05:01:15.663Z,1696.00
2023-05-22T05:02:15.595Z,1696.00
2023-05-22T05:03:15.728Z,1696.00
2023-05-22T05:04:15.548Z,1700.00
2023-05-22T05:05:21.787Z,1692.00
2023-05-22T05:06:15.474Z,1668.00
2023-05-22T05:07:15.484Z,1644.00
2023-05-22T05:08:15.510Z,1620.00
2023-05-22T05:09:15.447Z,1608.00
2023-05-22T05:10:15.481Z,1604.00
2023-05-22T05:11:16.379Z,1612.00
2023-05-22T05:12:15.476Z,1616.00
2023-05-22T05:13:15.429Z,1612.00
2023-05-22T05:14:15.423Z,1592.00
2023-05-22T05:15:15.393Z,1564.00
2023-05-22T05:16:16.350Z,1552.00
2023-05-22T05:17:15.358Z,1548.00
2023-05-22T05:18:15.394Z,1528.00
2023-05-22T05:19:15.430Z,1512.00
2023-05-22T05:20:15.365Z,1496.00
2023-05-22T05:21:16.298Z,1472.00
2023-05-22T05:22:15.258Z,1448.00
2023-05-22T05:23:15.262Z,1432.00
2023-05-22T05:24:15.305Z,1404.00
2023-05-22T05:25:15.332Z,1376.00
2023-05-22T05:26:15.244Z,1356.00
2023-05-22T05:27:16.208Z,1340.00
2023-05-22T05:28:15.268Z,1340.00
2023-05-22T05:29:15.233Z,1332.00
2023-05-22T05:30:15.185Z,1352.00
2023-05-22T05:31:15.187Z,1368.00
2023-05-22T05:32:15.244Z,1388.00
2023-05-22T05:33:21.417Z,1416.00
2023-05-22T05:34:15.155Z,1436.00
2023-05-22T05:35:15.124Z,1452.00
2023-05-22T05:36:15.122Z,1476.00
2023-05-22T05:37:15.115Z,1504.00
2023-05-22T05:38:15.121Z,1536.00
2023-05-22T05:39:21.392Z,1568.00
2023-05-22T05:40:15.170Z,1600.00
2023-05-22T05:41:15.052Z,1648.00
2023-05-22T05:42:15.122Z,1696.00
2023-05-22T05:43:15.092Z,1732.00
2023-05-22T05:44:15.062Z,1764.00
2023-05-22T05:45:21.328Z,1784.00
2023-05-22T05:46:15.032Z,1792.00
2023-05-22T05:47:15.078Z,1860.00
2023-05-22T05:48:14.953Z,1884.00
2023-05-22T05:49:14.972Z,1920.00
2023-05-22T05:50:15.901Z,1952.00
2023-05-22T05:51:14.978Z,1992.00
2023-05-22T05:52:14.945Z,2020.00
2023-05-22T05:53:14.995Z,2040.00
2023-05-22T05:54:14.897Z,2076.00
2023-05-22T05:55:21.165Z,2080.00
2023-05-22T05:56:14.861Z,2080.00
2023-05-22T05:57:14.969Z,2092.00
2023-05-22T05:58:14.875Z,2136.00
2023-05-22T05:59:14.899Z,2160.00
2023-05-22T06:00:14.874Z,2188.00
2023-05-22T06:01:21.130Z,2184.00
2023-05-22T06:02:14.851Z,2204.00
2023-05-22T06:03:15.596Z,2260.00
2023-05-22T06:04:14.804Z,2296.00
2023-05-22T06:05:14.799Z,2388.00
2023-05-22T06:06:14.789Z,2440.00
2023-05-22T06:07:15.702Z,2500.00
2023-05-22T06:08:14.779Z,2540.00
2023-05-22T06:09:14.693Z,2580.00
2023-05-22T06:10:14.721Z,2608.00
2023-05-22T06:11:15.390Z,2500.00
2023-05-22T06:12:15.593Z,2516.00
2023-05-22T06:13:14.763Z,2572.00
2023-05-22T06:14:14.629Z,2648.00
2023-05-22T06:15:14.649Z,2692.00
2023-05-22T06:16:14.633Z,2716.00
2023-05-22T06:17:15.628Z,2768.00
2023-05-22T06:18:14.629Z,2780.00
2023-05-22T06:19:14.668Z,2800.00
2023-05-22T06:20:14.645Z,2856.00
2023-05-22T06:21:14.615Z,2888.00
2023-05-22T06:22:14.586Z,2976.00
2023-05-22T06:23:15.498Z,3064.00
2023-05-22T06:24:14.469Z,3112.00
2023-05-22T06:25:14.507Z,3132.00
2023-05-22T06:26:14.467Z,3108.00
2023-05-22T06:27:14.473Z,3096.00
2023-05-22T06:28:14.481Z,3024.00
2023-05-22T06:29:15.396Z,3068.00
2023-05-22T06:30:16.912Z,3120.00
2023-05-22T06:31:16.043Z,3176.00
2023-05-22T06:32:14.505Z,3244.00
2023-05-22T06:33:14.501Z,3344.00
2023-05-22T06:34:15.353Z,3464.00
2023-05-22T06:35:14.441Z,3548.00
2023-05-22T06:36:14.373Z,3548.00
2023-05-22T06:37:14.388Z,3568.00
2023-05-22T06:38:14.335Z,3576.00
2023-05-22T06:39:15.280Z,3552.00
2023-05-22T06:40:14.279Z,3528.00
2023-05-22T06:41:14.348Z,3536.00
2023-05-22T06:42:14.302Z,3552.00
2023-05-22T06:43:14.266Z,3512.00
2023-05-22T06:44:15.274Z,3512.00
2023-05-22T06:45:14.253Z,3564.00
2023-05-22T06:46:14.370Z,3600.00
2023-05-22T06:47:14.214Z,3628.00
2023-05-22T06:48:14.281Z,3636.00
2023-05-22T06:49:15.154Z,3656.00
2023-05-22T06:50:14.177Z,3684.00
2023-05-22T06:51:14.153Z,3656.00
2023-05-22T06:52:14.143Z,3652.00
2023-05-22T06:53:14.158Z,3644.00
2023-05-22T06:54:14.157Z,3632.00
2023-05-22T06:55:15.078Z,3640.00
2023-05-22T06:56:14.110Z,3604.00
2023-05-22T06:57:14.099Z,3580.00
2023-05-22T06:58:14.110Z,3688.00
2023-05-22T06:59:14.026Z,3756.00
2023-05-22T07:00:14.078Z,3812.00
2023-05-22T07:01:14.980Z,3840.00
2023-05-22T07:02:13.999Z,3840.00
2023-05-22T07:03:14.085Z,3856.00
2023-05-22T07:04:14.004Z,3888.00
2023-05-22T07:05:13.970Z,3956.00
2023-05-22T07:06:14.032Z,3972.00
2023-05-22T07:07:14.946Z,4072.00
2023-05-22T07:08:13.965Z,4120.00
2023-05-22T07:09:14.631Z,4168.00
2023-05-22T07:10:13.923Z,4192.00
2023-05-22T07:11:13.917Z,4196.00
2023-05-22T07:12:14.917Z,4244.00
2023-05-22T07:13:13.956Z,4236.00
2023-05-22T07:14:13.890Z,4268.00
2023-05-22T07:15:13.877Z,4348.00
2023-05-22T07:16:13.858Z,4408.00
2023-05-22T07:17:14.779Z,4596.00
2023-05-22T07:18:13.893Z,4660.00
2023-05-22T07:19:13.875Z,4820.00
2023-05-22T07:20:13.825Z,4928.00
2023-05-22T07:21:13.786Z,4896.00
2023-05-22T07:22:13.861Z,4720.00
2023-05-22T07:23:14.793Z,4788.00
2023-05-22T07:24:13.862Z,4632.00
2023-05-22T07:25:13.880Z,4440.00
2023-05-22T07:26:13.775Z,4088.00
2023-05-22T07:27:14.487Z,4340.00
2023-05-22T07:28:15.573Z,4412.00
2023-05-22T07:29:13.688Z,4312.00
2023-05-22T07:30:13.711Z,4296.00
2023-05-22T07:31:13.714Z,4324.00
2023-05-22T07:32:13.652Z,4428.00
2023-05-22T07:33:13.792Z,4184.00
2023-05-22T07:34:14.551Z,4344.00
2023-05-22T07:35:13.630Z,4236.00
2023-05-22T07:36:13.670Z,4164.00
2023-05-22T07:37:13.625Z,4600.00
2023-05-22T07:38:13.655Z,4904.00
2023-05-22T07:39:14.524Z,5088.00
2023-05-22T07:40:13.561Z,4956.00
2023-05-22T07:41:13.558Z,5020.00
2023-05-22T07:42:13.573Z,4920.00
2023-05-22T07:43:13.589Z,5220.00
2023-05-22T07:44:19.738Z,5408.00
2023-05-22T07:45:13.482Z,5632.00
2023-05-22T07:46:13.619Z,5736.00
2023-05-22T07:47:13.509Z,5852.00
2023-05-22T07:48:13.544Z,5852.00
2023-05-22T07:49:14.366Z,5840.00
2023-05-22T07:50:13.468Z,5800.00
2023-05-22T07:51:13.481Z,5676.00
2023-05-22T07:52:13.390Z,5668.00
2023-05-22T07:53:13.364Z,5664.00
2023-05-22T07:54:14.347Z,5760.00
2023-05-22T07:55:13.424Z,5792.00
2023-05-22T07:56:13.384Z,5780.00
2023-05-22T07:57:13.381Z,5980.00
2023-05-22T07:58:13.326Z,5852.00
2023-05-22T07:59:14.112Z,5760.00
2023-05-22T08:00:14.296Z,6048.00
2023-05-22T08:01:13.347Z,6216.00
2023-05-22T08:02:13.285Z,6480.00
2023-05-22T08:03:13.343Z,6736.00
2023-05-22T08:04:13.387Z,6940.00
2023-05-22T08:05:13.287Z,6892.00
2023-05-22T08:06:14.149Z,6924.00
2023-05-22T08:07:13.239Z,6664.00
2023-05-22T08:08:13.197Z,7044.00
2023-05-22T08:09:13.205Z,6884.00
2023-05-22T08:10:13.300Z,6820.00
2023-05-22T08:11:13.152Z,6960.00
2023-05-22T08:12:14.208Z,7232.00
2023-05-22T08:13:13.160Z,7196.00
2023-05-22T08:14:13.104Z,7564.00
2023-05-22T08:15:13.144Z,7544.00
2023-05-22T08:16:13.152Z,7668.00
2023-05-22T08:17:13.295Z,7824.00
2023-05-22T08:18:14.012Z,7804.00
2023-05-22T08:19:13.176Z,7680.00
2023-05-22T08:20:13.128Z,7868.00
2023-05-22T08:21:13.029Z,7856.00
2023-05-22T08:22:13.041Z,7612.00
2023-05-22T08:23:13.083Z,7880.00
2023-05-22T08:24:13.970Z,7892.00
2023-05-22T08:25:12.973Z,7648.00
2023-05-22T08:26:13.028Z,7668.00
2023-05-22T08:27:13.022Z,7668.00
2023-05-22T08:28:13.003Z,7452.00
2023-05-22T08:29:12.969Z,7132.00
2023-05-22T08:30:14.030Z,6664.00
2023-05-22T08:31:12.942Z,6724.00
2023-05-22T08:32:12.923Z,6756.00
2023-05-22T08:33:12.970Z,6536.00
2023-05-22T08:34:12.885Z,6488.00
2023-05-22T08:35:12.922Z,5968.00
2023-05-22T08:36:13.835Z,5516.00
2023-05-22T08:37:12.846Z,5460.00
2023-05-22T08:38:12.848Z,5644.00
2023-05-22T08:39:12.819Z,6128.00
2023-05-22T08:40:12.925Z,6180.00
2023-05-22T08:41:12.774Z,6112.00
2023-05-22T08:42:13.801Z,6668.00
2023-05-22T08:43:12.790Z,7372.00
2023-05-22T08:44:12.805Z,7740.00
2023-05-22T08:45:12.745Z,7648.00
2023-05-22T08:46:12.762Z,7588.00
2023-05-22T08:47:12.824Z,8084.00
2023-05-22T08:48:14.658Z,9004.00
2023-05-22T08:49:12.743Z,9412.00
2023-05-22T08:50:12.731Z,9884.00
2023-05-22T08:51:12.625Z,10004.00
2023-05-22T08:52:12.675Z,9888.00
2023-05-22T08:53:12.675Z,9936.00
2023-05-22T08:54:13.586Z,9812.00
2023-05-22T08:55:12.662Z,9400.00
2023-05-22T08:56:12.596Z,9232.00
2023-05-22T08:57:12.655Z,9000.00
2023-05-22T08:58:12.598Z,8116.00
2023-05-22T08:59:13.484Z,8300.00
2023-05-22T09:00:12.578Z,7904.00
2023-05-22T09:01:12.571Z,7872.00
2023-05-22T09:02:13.394Z,8532.00
2023-05-22T09:03:12.646Z,8364.00
2023-05-22T09:04:13.503Z,8224.00
2023-05-22T09:05:12.532Z,8452.00
2023-05-22T09:06:12.536Z,8216.00
2023-05-22T09:07:12.594Z,8324.00
2023-05-22T09:08:20.415Z,9296.00
2023-05-22T09:09:13.973Z,9796.00
2023-05-22T09:10:13.366Z,10244.00
2023-05-22T09:11:12.560Z,10408.00
2023-05-22T09:12:12.436Z,10716.00
2023-05-22T09:13:12.421Z,11092.00
2023-05-22T09:14:12.400Z,11588.00
2023-05-22T09:15:13.341Z,11388.00
2023-05-22T09:16:12.409Z,11108.00
2023-05-22T09:17:12.358Z,11084.00
2023-05-22T09:18:12.418Z,11252.00
2023-05-22T09:19:12.320Z,10688.00
2023-05-22T09:20:12.339Z,9816.00
2023-05-22T09:21:28.287Z,9744.00
2023-05-22T09:22:13.778Z,9608.00
2023-05-22T09:23:12.314Z,9680.00
2023-05-22T09:24:12.290Z,9296.00
2023-05-22T09:25:12.371Z,8568.00
2023-05-22T09:26:12.319Z,8404.00
2023-05-22T09:27:13.218Z,8720.00
2023-05-22T09:28:12.191Z,8660.00
2023-05-22T09:29:12.255Z,8504.00
2023-05-22T09:30:12.210Z,8224.00
2023-05-22T09:31:12.269Z,8148.00
2023-05-22T09:32:13.108Z,7980.00
2023-05-22T09:33:12.382Z,7696.00
2023-05-22T09:34:12.174Z,7460.00
2023-05-22T09:35:12.123Z,7452.00
2023-05-22T09:36:12.136Z,7612.00
2023-05-22T09:37:12.102Z,7912.00
2023-05-22T09:38:13.046Z,8496.00
2023-05-22T09:39:12.072Z,9636.00
2023-05-22T09:40:12.146Z,9416.00
2023-05-22T09:41:12.174Z,8932.00
2023-05-22T09:42:12.058Z,8676.00
2023-05-22T09:43:13.002Z,8928.00
2023-05-22T09:44:12.009Z,9192.00
2023-05-22T09:45:12.100Z,9636.00
2023-05-22T09:46:12.167Z,9972.00
2023-05-22T09:47:12.023Z,9960.00
2023-05-22T09:48:11.983Z,10444.00
2023-05-22T09:49:16.168Z,11580.00
2023-05-22T09:50:11.950Z,12000.00
2023-05-22T09:51:12.012Z,12060.00
2023-05-22T09:52:11.983Z,12008.00
2023-05-22T09:53:11.946Z,11948.00
2023-05-22T09:54:11.897Z,11444.00
2023-05-22T09:55:13.549Z,11164.00
2023-05-22T09:56:11.859Z,10824.00
2023-05-22T09:57:11.921Z,10412.00
2023-05-22T09:58:11.881Z,10724.00
2023-05-22T09:59:11.800Z,10516.00
2023-05-22T10:00:11.904Z,10352.00
2023-05-22T10:01:12.823Z,10148.00
2023-05-22T10:02:11.935Z,9792.00
2023-05-22T10:03:11.858Z,9608.00
2023-05-22T10:04:11.822Z,9488.00
2023-05-22T10:05:11.805Z,9660.00
2023-05-22T10:06:11.803Z,12348.00
2023-05-22T10:07:12.731Z,11564.00
2023-05-22T10:08:11.819Z,10712.00
2023-05-22T10:09:11.715Z,9984.00
2023-05-22T10:10:11.809Z,10032.00
2023-05-22T10:11:11.822Z,11260.00
2023-05-22T10:12:12.774Z,13888.00
2023-05-22T10:13:11.721Z,12692.00
2023-05-22T10:14:11.673Z,13564.00
2023-05-22T10:15:11.720Z,12468.00
2023-05-22T10:16:11.664Z,11048.00
2023-05-22T10:17:12.579Z,10452.00
2023-05-22T10:18:11.621Z,9924.00
2023-05-22T10:19:11.683Z,10964.00
2023-05-22T10:20:11.651Z,11092.00
2023-05-22T10:21:11.625Z,9968.00
2023-05-22T10:22:11.608Z,9804.00
2023-05-22T10:23:12.625Z,10488.00
2023-05-22T10:24:11.567Z,11472.00
2023-05-22T10:25:11.559Z,11852.00
2023-05-22T10:26:11.534Z,11604.00
2023-05-22T10:27:11.510Z,12380.00
2023-05-22T10:28:12.454Z,13628.00
2023-05-22T10:29:11.574Z,15104.00
2023-05-22T10:30:11.503Z,15872.00
2023-05-22T10:31:11.443Z,20000.00
2023-05-22T10:32:11.422Z,32320.00
2023-05-22T10:33:11.507Z,43392.00
2023-05-22T10:34:12.520Z,45344.00
2023-05-22T10:35:11.435Z,32640.00
2023-05-22T10:36:11.413Z,24640.00
2023-05-22T10:37:18.576Z,22624.00
2023-05-22T10:38:12.993Z,21536.00
2023-05-22T10:39:11.379Z,18304.00
2023-05-22T10:40:18.351Z,14016.00
2023-05-22T10:41:11.374Z,15456.00
2023-05-22T10:42:11.346Z,19712.00
2023-05-22T10:43:11.302Z,21056.00
2023-05-22T10:44:11.442Z,19040.00
2023-05-22T10:45:11.386Z,21280.00
2023-05-22T10:46:12.377Z,24192.00
2023-05-22T10:47:12.035Z,31104.00
2023-05-22T10:48:11.254Z,29824.00
2023-05-22T10:49:11.216Z,20896.00
2023-05-22T10:50:11.256Z,15680.00
2023-05-22T10:51:11.230Z,12500.00
2023-05-22T10:52:12.172Z,11512.00
2023-05-22T10:53:11.245Z,11704.00
2023-05-22T10:54:11.171Z,12304.00
2023-05-22T10:55:11.204Z,13404.00
2023-05-22T10:56:11.144Z,14848.00
2023-05-22T10:57:11.158Z,14880.00
2023-05-22T10:58:12.357Z,16256.00
2023-05-22T10:59:11.156Z,16128.00
2023-05-22T11:00:11.134Z,16608.00
2023-05-22T11:01:11.127Z,15360.00
2023-05-22T11:02:11.609Z,14848.00
2023-05-22T11:03:17.794Z,13036.00
2023-05-22T11:04:13.551Z,12176.00
2023-05-22T11:05:11.268Z,10684.00
2023-05-22T11:06:11.198Z,10108.00
2023-05-22T11:07:11.056Z,10480.00
2023-05-22T11:08:11.005Z,10684.00
2023-05-22T11:09:10.989Z,11212.00
2023-05-22T11:10:11.971Z,13664.00
2023-05-22T11:11:11.175Z,14144.00
2023-05-22T11:12:10.966Z,13032.00
2023-05-22T11:13:10.990Z,12004.00
2023-05-22T11:14:10.949Z,12384.00
2023-05-22T11:15:11.583Z,12428.00
2023-05-22T11:16:11.945Z,12224.00
2023-05-22T11:17:11.034Z,12384.00
2023-05-22T11:18:10.924Z,11556.00
2023-05-22T11:19:22.789Z,11428.00
2023-05-22T11:20:12.541Z,11676.00
2023-05-22T11:21:11.837Z,12536.00
2023-05-22T11:22:10.853Z,13348.00
2023-05-22T11:23:10.964Z,12304.00
2023-05-22T11:24:10.875Z,12160.00
2023-05-22T11:25:10.866Z,12136.00
2023-05-22T11:26:11.853Z,12260.00
2023-05-22T11:27:10.820Z,12720.00
2023-05-22T11:28:10.791Z,12960.00
2023-05-22T11:29:10.777Z,13076.00
2023-05-22T11:30:10.773Z,12384.00
2023-05-22T11:31:11.804Z,12236.00
2023-05-22T11:32:10.851Z,12220.00
2023-05-22T11:33:10.795Z,13380.00
2023-05-22T11:34:10.738Z,13840.00
2023-05-22T11:35:10.704Z,12416.00
2023-05-22T11:36:11.658Z,13760.00
2023-05-22T11:37:10.687Z,14560.00
2023-05-22T11:38:10.654Z,15712.00
2023-05-22T11:39:10.700Z,15520.00
2023-05-22T11:40:10.686Z,17024.00
2023-05-22T11:41:11.625Z,19264.00
2023-05-22T11:42:10.628Z,17984.00
2023-05-22T11:43:10.668Z,18112.00
2023-05-22T11:44:10.602Z,17504.00
2023-05-22T11:45:10.610Z,14848.00
2023-05-22T11:46:11.628Z,13792.00
2023-05-22T11:47:10.567Z,11108.00
2023-05-22T11:48:10.764Z,12396.00
2023-05-22T11:49:10.565Z,10852.00
2023-05-22T11:50:10.577Z,11656.00
2023-05-22T11:51:10.535Z,12384.00
2023-05-22T11:52:11.425Z,11764.00
2023-05-22T11:53:10.565Z,10448.00
2023-05-22T11:54:10.512Z,10608.00
2023-05-22T11:55:10.534Z,11480.00
2023-05-22T11:56:10.459Z,11756.00
2023-05-22T11:57:10.598Z,12312.00
2023-05-22T11:58:11.449Z,12468.00
2023-05-22T11:59:10.427Z,12836.00
2023-05-22T12:00:10.454Z,13204.00
2023-05-22T12:01:10.383Z,14624.00
2023-05-22T12:02:10.391Z,15616.00
2023-05-22T12:03:11.437Z,17152.00
2023-05-22T12:04:10.426Z,17664.00
2023-05-22T12:05:10.326Z,18880.00
2023-05-22T12:06:10.360Z,19968.00
2023-05-22T12:07:10.380Z,20960.00
2023-05-22T12:08:11.245Z,20960.00
2023-05-22T12:09:10.448Z,21408.00
2023-05-22T12:10:10.278Z,22112.00
2023-05-22T12:11:10.364Z,22528.00
2023-05-22T12:12:10.311Z,25664.00
2023-05-22T12:13:10.270Z,24608.00
2023-05-22T12:14:11.170Z,21696.00
2023-05-22T12:15:10.258Z,21056.00
2023-05-22T12:16:10.256Z,17984.00
2023-05-22T12:17:10.191Z,19296.00
2023-05-22T12:18:10.246Z,19904.00
2023-05-22T12:19:10.184Z,20448.00
2023-05-22T12:20:11.122Z,19584.00